sensor_id;sensor_type;location;lat;lon;timestamp;noise_LAeq;noise_LA_min;noise_LA_max;noise_LA01;noise_LA95
75037;Laerm;64247;51.540;5.854;2023-06-10T00:01:07;47.61;45.50;51.91;;
75037;Laerm;64247;51.540;5.854;2023-06-10T00:03:08;47.55;45.53;54.83;;
75037;Laerm;64247;51.540;5.854;2023-06-10T00:05:09;48.03;45.41;54.01;;
75037;Laerm;64247;51.540;5.854;2023-06-10T00:07:10;48.40;45.62;55.51;;
75037;Laerm;64247;51.540;5.854;2023-06-10T00:09:11;48.21;45.64;52.85;;
75037;Laerm;64247;51.540;5.854;2023-06-10T00:11:12;48.81;46.72;53.10;;
75037;Laerm;64247;51.540;5.854;2023-06-10T00:13:13;50.06;46.83;56.67;;
75037;Laerm;64247;51.540;5.854;2023-06-10T00:15:14;48.80;46.54;64.60;;
75037;Laerm;64247;51.540;5.854;2023-06-10T00:17:15;48.18;46.34;58.47;;
75037;Laerm;64247;51.540;5.854;2023-06-10T00:19:16;48.63;46.32;52.87;;
75037;Laerm;64247;51.540;5.854;2023-06-10T00:21:19;48.25;46.61;66.40;;
75037;Laerm;64247;51.540;5.854;2023-06-10T00:23:21;48.19;46.27;52.39;;
75037;Laerm;64247;51.540;5.854;2023-06-10T00:25:23;49.37;46.71;56.33;;
75037;Laerm;64247;51.540;5.854;2023-06-10T00:27:24;48.24;46.23;51.71;;
75037;Laerm;64247;51.540;5.854;2023-06-10T00:29:28;49.95;46.49;57.05;;
75037;Laerm;64247;51.540;5.854;2023-06-10T00:31:28;48.28;46.49;52.39;;
75037;Laerm;64247;51.540;5.854;2023-06-10T00:33:30;49.02;46.78;64.66;;
75037;Laerm;64247;51.540;5.854;2023-06-10T00:35:31;48.16;46.19;51.11;;
75037;Laerm;64247;51.540;5.854;2023-06-10T00:37:34;48.25;46.36;52.62;;
75037;Laerm;64247;51.540;5.854;2023-06-10T00:39:37;49.31;46.72;55.99;;
75037;Laerm;64247;51.540;5.854;2023-06-10T00:41:38;48.57;46.26;51.75;;
75037;Laerm;64247;51.540;5.854;2023-06-10T00:43:40;48.07;46.21;51.43;;
75037;Laerm;64247;51.540;5.854;2023-06-10T00:45:42;50.41;46.15;58.90;;
75037;Laerm;64247;51.540;5.854;2023-06-10T00:47:43;48.89;46.00;63.99;;
75037;Laerm;64247;51.540;5.854;2023-06-10T00:49:45;48.35;46.23;53.86;;
75037;Laerm;64247;51.540;5.854;2023-06-10T00:51:47;48.22;45.93;53.51;;
75037;Laerm;64247;51.540;5.854;2023-06-10T00:53:49;47.36;45.53;49.82;;
75037;Laerm;64247;51.540;5.854;2023-06-10T00:55:50;47.85;45.71;54.12;;
75037;Laerm;64247;51.540;5.854;2023-06-10T00:57:52;47.81;45.68;60.42;;
75037;Laerm;64247;51.540;5.854;2023-06-10T00:59:54;48.00;45.68;51.00;;
75037;Laerm;64247;51.540;5.854;2023-06-10T01:01:56;47.42;45.35;50.26;;
75037;Laerm;64247;51.540;5.854;2023-06-10T01:03:57;48.92;45.83;59.94;;
75037;Laerm;64247;51.540;5.854;2023-06-10T01:12:25;48.55;46.88;53.28;;
75037;Laerm;64247;51.540;5.854;2023-06-10T01:14:29;48.56;46.66;53.70;;
75037;Laerm;64247;51.540;5.854;2023-06-10T01:16:32;48.77;46.42;53.73;;
75037;Laerm;64247;51.540;5.854;2023-06-10T01:18:33;49.07;46.44;58.53;;
75037;Laerm;64247;51.540;5.854;2023-06-10T01:20:37;48.01;46.24;50.93;;
75037;Laerm;64247;51.540;5.854;2023-06-10T01:22:40;48.65;46.44;52.24;;
75037;Laerm;64247;51.540;5.854;2023-06-10T01:24:41;49.12;46.62;57.64;;
75037;Laerm;64247;51.540;5.854;2023-06-10T01:26:48;48.14;46.38;57.45;;
75037;Laerm;64247;51.540;5.854;2023-06-10T01:29:21;48.08;46.16;52.92;;
75037;Laerm;64247;51.540;5.854;2023-06-10T01:31:44;48.07;46.35;61.14;;
75037;Laerm;64247;51.540;5.854;2023-06-10T01:33:52;48.54;46.21;55.59;;
75037;Laerm;64247;51.540;5.854;2023-06-10T01:35:56;47.86;46.09;51.28;;
75037;Laerm;64247;51.540;5.854;2023-06-10T01:38:00;48.29;46.21;55.20;;
75037;Laerm;64247;51.540;5.854;2023-06-10T01:40:02;47.89;45.46;51.19;;
75037;Laerm;64247;51.540;5.854;2023-06-10T01:42:11;48.25;45.99;52.16;;
75037;Laerm;64247;51.540;5.854;2023-06-10T01:44:21;48.18;45.85;63.13;;
75037;Laerm;64247;51.540;5.854;2023-06-10T01:46:22;48.23;45.77;55.19;;
75037;Laerm;64247;51.540;5.854;2023-06-10T01:48:23;48.27;46.47;52.23;;
75037;Laerm;64247;51.540;5.854;2023-06-10T01:50:24;46.95;44.62;62.35;;
75037;Laerm;64247;51.540;5.854;2023-06-10T01:52:25;45.92;43.73;51.82;;
75037;Laerm;64247;51.540;5.854;2023-06-10T01:54:26;46.33;44.45;49.08;;
75037;Laerm;64247;51.540;5.854;2023-06-10T01:56:27;46.93;44.33;61.42;;
75037;Laerm;64247;51.540;5.854;2023-06-10T01:58:28;47.39;44.16;69.11;;
75037;Laerm;64247;51.540;5.854;2023-06-10T02:00:30;46.24;44.07;57.09;;
75037;Laerm;64247;51.540;5.854;2023-06-10T02:02:30;46.05;43.69;58.36;;
75037;Laerm;64247;51.540;5.854;2023-06-10T02:04:31;46.83;43.95;64.56;;
75037;Laerm;64247;51.540;5.854;2023-06-10T02:06:34;49.45;43.93;67.79;;
75037;Laerm;64247;51.540;5.854;2023-06-10T02:08:37;53.91;43.68;72.88;;
75037;Laerm;64247;51.540;5.854;2023-06-10T02:10:38;55.51;45.02;76.98;;
75037;Laerm;64247;51.540;5.854;2023-06-10T02:12:39;55.81;44.27;76.70;;
75037;Laerm;64247;51.540;5.854;2023-06-10T02:14:40;57.75;45.15;76.49;;
75037;Laerm;64247;51.540;5.854;2023-06-10T02:16:41;58.62;45.11;78.15;;
75037;Laerm;64247;51.540;5.854;2023-06-10T02:18:42;56.25;45.45;77.74;;
75037;Laerm;64247;51.540;5.854;2023-06-10T02:20:46;56.65;45.38;75.94;;
75037;Laerm;64247;51.540;5.854;2023-06-10T02:22:47;58.06;45.33;79.11;;
75037;Laerm;64247;51.540;5.854;2023-06-10T02:24:49;57.01;45.36;76.91;;
75037;Laerm;64247;51.540;5.854;2023-06-10T02:26:50;54.77;45.71;78.39;;
75037;Laerm;64247;51.540;5.854;2023-06-10T02:28:52;53.66;45.84;70.70;;
75037;Laerm;64247;51.540;5.854;2023-06-10T02:30:53;51.91;45.16;69.10;;
75037;Laerm;64247;51.540;5.854;2023-06-10T02:32:55;57.09;45.13;78.30;;
75037;Laerm;64247;51.540;5.854;2023-06-10T02:34:59;51.58;45.56;66.90;;
75037;Laerm;64247;51.540;5.854;2023-06-10T02:37:02;52.05;45.69;65.29;;
75037;Laerm;64247;51.540;5.854;2023-06-10T02:39:04;52.71;45.77;69.91;;
75037;Laerm;64247;51.540;5.854;2023-06-10T02:41:06;53.76;46.13;70.75;;
75037;Laerm;64247;51.540;5.854;2023-06-10T02:43:06;51.29;45.61;69.48;;
75037;Laerm;64247;51.540;5.854;2023-06-10T02:45:08;49.91;45.62;64.14;;
75037;Laerm;64247;51.540;5.854;2023-06-10T02:47:14;51.17;45.68;64.36;;
75037;Laerm;64247;51.540;5.854;2023-06-10T02:49:15;50.45;45.60;62.62;;
75037;Laerm;64247;51.540;5.854;2023-06-10T02:51:16;52.45;45.87;64.94;;
75037;Laerm;64247;51.540;5.854;2023-06-10T02:53:20;54.02;44.88;64.48;;
75037;Laerm;64247;51.540;5.854;2023-06-10T02:55:28;55.13;45.35;65.35;;
75037;Laerm;64247;51.540;5.854;2023-06-10T02:57:34;55.86;45.43;67.29;;
75037;Laerm;64247;51.540;5.854;2023-06-10T02:59:37;55.60;45.30;65.88;;
75037;Laerm;64247;51.540;5.854;2023-06-10T03:01:40;55.84;45.56;68.41;;
75037;Laerm;64247;51.540;5.854;2023-06-10T03:03:45;56.22;45.38;66.63;;
75037;Laerm;64247;51.540;5.854;2023-06-10T03:05:49;56.01;46.20;65.96;;
75037;Laerm;64247;51.540;5.854;2023-06-10T03:07:52;55.29;45.12;64.39;;
75037;Laerm;64247;51.540;5.854;2023-06-10T03:09:53;54.54;44.41;64.85;;
75037;Laerm;64247;51.540;5.854;2023-06-10T03:11:54;56.23;46.75;65.67;;
75037;Laerm;64247;51.540;5.854;2023-06-10T03:13:57;56.00;46.48;65.70;;
75037;Laerm;64247;51.540;5.854;2023-06-10T03:15:59;56.89;45.97;67.82;;
75037;Laerm;64247;51.540;5.854;2023-06-10T03:18:01;57.36;46.57;66.71;;
75037;Laerm;64247;51.540;5.854;2023-06-10T03:20:04;53.61;46.04;65.15;;
75037;Laerm;64247;51.540;5.854;2023-06-10T03:22:13;55.63;46.14;67.81;;
75037;Laerm;64247;51.540;5.854;2023-06-10T03:24:29;55.62;45.96;68.19;;
75037;Laerm;64247;51.540;5.854;2023-06-10T03:26:30;53.74;45.38;65.24;;
75037;Laerm;64247;51.540;5.854;2023-06-10T03:28:31;55.25;45.98;66.90;;
75037;Laerm;64247;51.540;5.854;2023-06-10T03:30:32;55.71;46.26;67.82;;
75037;Laerm;64247;51.540;5.854;2023-06-10T03:32:33;55.74;45.37;66.50;;
75037;Laerm;64247;51.540;5.854;2023-06-10T03:34:35;56.93;46.13;68.38;;
75037;Laerm;64247;51.540;5.854;2023-06-10T03:36:36;55.29;45.52;69.62;;
75037;Laerm;64247;51.540;5.854;2023-06-10T03:38:39;53.52;46.10;65.95;;
75037;Laerm;64247;51.540;5.854;2023-06-10T03:40:41;53.11;46.46;66.30;;
75037;Laerm;64247;51.540;5.854;2023-06-10T03:42:42;52.24;46.52;62.45;;
75037;Laerm;64247;51.540;5.854;2023-06-10T03:44:45;52.16;45.49;62.64;;
75037;Laerm;64247;51.540;5.854;2023-06-10T03:46:46;53.84;46.36;63.89;;
75037;Laerm;64247;51.540;5.854;2023-06-10T03:48:48;52.68;45.87;64.03;;
75037;Laerm;64247;51.540;5.854;2023-06-10T03:50:49;53.19;46.59;64.07;;
75037;Laerm;64247;51.540;5.854;2023-06-10T03:52:51;51.87;45.27;61.74;;
75037;Laerm;64247;51.540;5.854;2023-06-10T03:54:55;54.20;44.91;66.31;;
75037;Laerm;64247;51.540;5.854;2023-06-10T03:56:57;54.87;44.69;67.97;;
75037;Laerm;64247;51.540;5.854;2023-06-10T03:58:58;49.38;44.54;64.89;;
75037;Laerm;64247;51.540;5.854;2023-06-10T04:00:59;52.24;45.40;64.73;;
75037;Laerm;64247;51.540;5.854;2023-06-10T04:03:09;53.88;45.73;68.94;;
75037;Laerm;64247;51.540;5.854;2023-06-10T04:05:19;55.08;44.84;70.07;;
75037;Laerm;64247;51.540;5.854;2023-06-10T04:07:23;56.33;45.60;69.48;;
75037;Laerm;64247;51.540;5.854;2023-06-10T04:09:24;57.26;45.55;69.51;;
75037;Laerm;64247;51.540;5.854;2023-06-10T04:11:26;53.29;46.45;67.67;;
75037;Laerm;64247;51.540;5.854;2023-06-10T04:13:27;51.77;46.09;64.38;;
75037;Laerm;64247;51.540;5.854;2023-06-10T04:15:31;51.92;45.73;64.72;;
75037;Laerm;64247;51.540;5.854;2023-06-10T04:17:35;50.34;45.85;64.31;;
75037;Laerm;64247;51.540;5.854;2023-06-10T04:19:36;50.70;46.11;59.13;;
75037;Laerm;64247;51.540;5.854;2023-06-10T04:21:38;53.86;46.47;63.02;;
75037;Laerm;64247;51.540;5.854;2023-06-10T04:23:38;53.33;46.31;65.36;;
75037;Laerm;64247;51.540;5.854;2023-06-10T04:25:40;52.74;45.50;65.24;;
75037;Laerm;64247;51.540;5.854;2023-06-10T04:27:41;54.15;46.90;66.20;;
75037;Laerm;64247;51.540;5.854;2023-06-10T04:29:42;51.11;46.25;61.80;;
75037;Laerm;64247;51.540;5.854;2023-06-10T04:31:43;52.13;45.70;66.15;;
75037;Laerm;64247;51.540;5.854;2023-06-10T04:33:44;51.07;46.02;63.02;;
75037;Laerm;64247;51.540;5.854;2023-06-10T04:35:46;55.04;46.75;65.95;;
75037;Laerm;64247;51.540;5.854;2023-06-10T04:37:48;54.70;45.56;68.12;;
75037;Laerm;64247;51.540;5.854;2023-06-10T04:39:50;52.66;45.75;64.64;;
75037;Laerm;64247;51.540;5.854;2023-06-10T04:41:51;54.63;46.30;68.00;;
75037;Laerm;64247;51.540;5.854;2023-06-10T04:43:52;55.06;45.93;68.85;;
75037;Laerm;64247;51.540;5.854;2023-06-10T04:45:55;54.60;46.08;67.53;;
75037;Laerm;64247;51.540;5.854;2023-06-10T04:47:56;49.48;45.42;59.99;;
75037;Laerm;64247;51.540;5.854;2023-06-10T04:49:59;51.24;46.26;64.91;;
75037;Laerm;64247;51.540;5.854;2023-06-10T04:52:00;52.77;45.34;64.94;;
75037;Laerm;64247;51.540;5.854;2023-06-10T04:54:01;53.51;45.26;64.47;;
75037;Laerm;64247;51.540;5.854;2023-06-10T04:56:04;53.20;45.12;63.48;;
75037;Laerm;64247;51.540;5.854;2023-06-10T04:58:05;53.19;46.18;68.76;;
75037;Laerm;64247;51.540;5.854;2023-06-10T05:00:06;50.88;44.53;64.00;;
75037;Laerm;64247;51.540;5.854;2023-06-10T05:02:08;53.88;45.85;66.44;;
75037;Laerm;64247;51.540;5.854;2023-06-10T05:04:09;55.21;45.78;65.52;;
75037;Laerm;64247;51.540;5.854;2023-06-10T05:06:10;52.01;45.03;66.05;;
75037;Laerm;64247;51.540;5.854;2023-06-10T05:08:11;50.88;45.05;63.62;;
75037;Laerm;64247;51.540;5.854;2023-06-10T05:10:12;55.60;46.43;68.65;;
75037;Laerm;64247;51.540;5.854;2023-06-10T05:12:12;55.62;46.29;69.98;;
75037;Laerm;64247;51.540;5.854;2023-06-10T05:14:13;52.77;46.55;65.05;;
75037;Laerm;64247;51.540;5.854;2023-06-10T05:16:17;52.17;46.63;67.36;;
75037;Laerm;64247;51.540;5.854;2023-06-10T05:18:17;55.02;46.74;68.32;;
75037;Laerm;64247;51.540;5.854;2023-06-10T05:20:18;54.59;45.54;67.30;;
75037;Laerm;64247;51.540;5.854;2023-06-10T05:22:19;54.33;45.94;67.33;;
75037;Laerm;64247;51.540;5.854;2023-06-10T05:24:20;56.15;46.47;68.00;;
75037;Laerm;64247;51.540;5.854;2023-06-10T05:26:21;51.78;46.03;65.04;;
75037;Laerm;64247;51.540;5.854;2023-06-10T05:28:22;55.96;47.62;65.96;;
75037;Laerm;64247;51.540;5.854;2023-06-10T05:30:23;53.57;46.36;66.46;;
75037;Laerm;64247;51.540;5.854;2023-06-10T05:32:25;51.42;46.53;61.49;;
75037;Laerm;64247;51.540;5.854;2023-06-10T05:34:26;51.70;46.31;61.68;;
75037;Laerm;64247;51.540;5.854;2023-06-10T05:36:27;54.90;47.18;64.21;;
75037;Laerm;64247;51.540;5.854;2023-06-10T05:38:28;54.37;46.52;69.12;;
75037;Laerm;64247;51.540;5.854;2023-06-10T05:40:29;54.39;45.50;70.48;;
75037;Laerm;64247;51.540;5.854;2023-06-10T05:42:30;54.40;45.89;67.24;;
75037;Laerm;64247;51.540;5.854;2023-06-10T05:44:30;52.82;46.28;66.48;;
75037;Laerm;64247;51.540;5.854;2023-06-10T05:46:31;52.50;46.00;66.11;;
75037;Laerm;64247;51.540;5.854;2023-06-10T05:48:32;51.79;46.56;62.70;;
75037;Laerm;64247;51.540;5.854;2023-06-10T05:50:34;51.21;46.26;60.33;;
75037;Laerm;64247;51.540;5.854;2023-06-10T05:52:39;50.24;45.04;59.21;;
75037;Laerm;64247;51.540;5.854;2023-06-10T05:54:43;52.58;45.16;67.19;;
75037;Laerm;64247;51.540;5.854;2023-06-10T05:56:44;52.98;45.30;67.85;;
75037;Laerm;64247;51.540;5.854;2023-06-10T05:58:44;55.67;47.10;69.33;;
75037;Laerm;64247;51.540;5.854;2023-06-10T06:00:45;54.42;45.31;68.99;;
75037;Laerm;64247;51.540;5.854;2023-06-10T06:02:46;52.88;45.31;65.86;;
75037;Laerm;64247;51.540;5.854;2023-06-10T06:04:47;52.25;45.71;65.62;;
75037;Laerm;64247;51.540;5.854;2023-06-10T06:06:48;50.19;44.85;61.49;;
75037;Laerm;64247;51.540;5.854;2023-06-10T06:08:49;54.99;44.87;68.80;;
75037;Laerm;64247;51.540;5.854;2023-06-10T06:10:50;55.85;45.61;69.39;;
75037;Laerm;64247;51.540;5.854;2023-06-10T06:12:51;60.55;46.26;79.44;;
75037;Laerm;64247;51.540;5.854;2023-06-10T06:14:52;65.73;47.77;85.09;;
75037;Laerm;64247;51.540;5.854;2023-06-10T06:16:52;62.17;46.57;83.08;;
75037;Laerm;64247;51.540;5.854;2023-06-10T06:18:53;55.99;45.75;67.72;;
75037;Laerm;64247;51.540;5.854;2023-06-10T06:20:54;54.07;45.32;65.63;;
75037;Laerm;64247;51.540;5.854;2023-06-10T06:22:55;55.38;45.65;68.24;;
75037;Laerm;64247;51.540;5.854;2023-06-10T06:24:56;54.79;46.96;65.41;;
75037;Laerm;64247;51.540;5.854;2023-06-10T06:26:57;55.19;45.92;66.39;;
75037;Laerm;64247;51.540;5.854;2023-06-10T06:28:58;52.07;44.91;66.51;;
75037;Laerm;64247;51.540;5.854;2023-06-10T06:30:59;50.51;45.23;63.50;;
75037;Laerm;64247;51.540;5.854;2023-06-10T06:33:00;54.32;45.72;68.91;;
75037;Laerm;64247;51.540;5.854;2023-06-10T06:35:00;54.47;46.88;66.12;;
75037;Laerm;64247;51.540;5.854;2023-06-10T06:37:01;54.72;45.92;64.71;;
75037;Laerm;64247;51.540;5.854;2023-06-10T06:39:05;53.27;45.75;66.98;;
75037;Laerm;64247;51.540;5.854;2023-06-10T06:41:06;53.16;46.47;65.02;;
75037;Laerm;64247;51.540;5.854;2023-06-10T06:43:07;55.73;47.12;73.20;;
75037;Laerm;64247;51.540;5.854;2023-06-10T06:45:31;52.93;47.27;64.15;;
75037;Laerm;64247;51.540;5.854;2023-06-10T06:47:34;51.45;45.76;64.92;;
75037;Laerm;64247;51.540;5.854;2023-06-10T06:49:35;54.73;45.45;74.02;;
75037;Laerm;64247;51.540;5.854;2023-06-10T06:51:36;61.15;45.18;87.16;;
75037;Laerm;64247;51.540;5.854;2023-06-10T06:53:37;59.18;45.65;78.91;;
75037;Laerm;64247;51.540;5.854;2023-06-10T06:55:44;63.57;44.59;81.86;;
75037;Laerm;64247;51.540;5.854;2023-06-10T06:57:45;64.02;45.02;81.48;;
75037;Laerm;64247;51.540;5.854;2023-06-10T06:59:47;60.92;46.07;80.31;;
75037;Laerm;64247;51.540;5.854;2023-06-10T07:01:48;53.40;46.25;67.51;;
75037;Laerm;64247;51.540;5.854;2023-06-10T07:03:49;54.08;44.43;65.71;;
75037;Laerm;64247;51.540;5.854;2023-06-10T07:05:50;51.63;43.86;64.83;;
75037;Laerm;64247;51.540;5.854;2023-06-10T07:07:51;51.56;45.31;65.09;;
75037;Laerm;64247;51.540;5.854;2023-06-10T07:09:55;54.03;46.14;66.55;;
75037;Laerm;64247;51.540;5.854;2023-06-10T07:11:56;53.09;45.45;66.60;;
75037;Laerm;64247;51.540;5.854;2023-06-10T07:13:57;53.20;46.61;63.63;;
75037;Laerm;64247;51.540;5.854;2023-06-10T07:15:57;49.45;45.75;59.70;;
75037;Laerm;64247;51.540;5.854;2023-06-10T07:17:59;54.13;45.70;69.86;;
75037;Laerm;64247;51.540;5.854;2023-06-10T07:20:00;56.68;46.97;68.28;;
75037;Laerm;64247;51.540;5.854;2023-06-10T07:22:01;54.74;46.01;66.24;;
75037;Laerm;64247;51.540;5.854;2023-06-10T07:24:02;56.30;46.60;69.78;;
75037;Laerm;64247;51.540;5.854;2023-06-10T07:26:03;59.18;46.57;73.45;;
75037;Laerm;64247;51.540;5.854;2023-06-10T07:28:04;49.34;45.53;59.71;;
75037;Laerm;64247;51.540;5.854;2023-06-10T07:30:06;51.06;46.41;62.27;;
75037;Laerm;64247;51.540;5.854;2023-06-10T07:32:08;53.08;47.75;63.81;;
75037;Laerm;64247;51.540;5.854;2023-06-10T07:34:09;51.37;46.40;70.71;;
75037;Laerm;64247;51.540;5.854;2023-06-10T07:36:10;54.53;46.53;69.15;;
75037;Laerm;64247;51.540;5.854;2023-06-10T07:38:11;54.85;46.15;69.45;;
75037;Laerm;64247;51.540;5.854;2023-06-10T07:40:12;53.69;46.07;69.23;;
75037;Laerm;64247;51.540;5.854;2023-06-10T07:42:13;50.89;46.00;61.69;;
75037;Laerm;64247;51.540;5.854;2023-06-10T07:44:14;55.10;46.06;68.83;;
75037;Laerm;64247;51.540;5.854;2023-06-10T07:46:15;55.31;46.52;69.08;;
75037;Laerm;64247;51.540;5.854;2023-06-10T07:48:16;56.64;49.82;69.67;;
75037;Laerm;64247;51.540;5.854;2023-06-10T07:50:17;55.73;48.72;66.71;;
75037;Laerm;64247;51.540;5.854;2023-06-10T07:52:18;55.50;49.91;65.63;;
75037;Laerm;64247;51.540;5.854;2023-06-10T07:54:19;55.43;49.54;68.05;;
75037;Laerm;64247;51.540;5.854;2023-06-10T07:56:20;55.41;48.91;69.08;;
75037;Laerm;64247;51.540;5.854;2023-06-10T07:58:22;58.95;46.63;71.83;;
75037;Laerm;64247;51.540;5.854;2023-06-10T08:00:24;50.28;47.24;59.60;;
75037;Laerm;64247;51.540;5.854;2023-06-10T08:02:25;51.10;45.77;62.11;;
75037;Laerm;64247;51.540;5.854;2023-06-10T08:04:25;49.30;45.39;60.95;;
75037;Laerm;64247;51.540;5.854;2023-06-10T08:06:26;51.06;45.36;64.04;;
75037;Laerm;64247;51.540;5.854;2023-06-10T08:08:27;53.87;46.20;69.60;;
75037;Laerm;64247;51.540;5.854;2023-06-10T08:10:28;53.36;46.48;65.04;;
75037;Laerm;64247;51.540;5.854;2023-06-10T08:12:29;56.84;46.96;73.30;;
75037;Laerm;64247;51.540;5.854;2023-06-10T08:14:30;56.94;46.30;70.89;;
75037;Laerm;64247;51.540;5.854;2023-06-10T08:16:31;57.10;46.46;72.34;;
75037;Laerm;64247;51.540;5.854;2023-06-10T08:18:32;57.81;46.50;70.23;;
75037;Laerm;64247;51.540;5.854;2023-06-10T08:20:33;58.15;48.01;73.19;;
75037;Laerm;64247;51.540;5.854;2023-06-10T08:22:34;57.11;47.50;74.77;;
75037;Laerm;64247;51.540;5.854;2023-06-10T08:24:34;54.47;46.72;65.17;;
75037;Laerm;64247;51.540;5.854;2023-06-10T08:26:35;54.76;46.42;65.50;;
75037;Laerm;64247;51.540;5.854;2023-06-10T08:28:36;50.88;45.94;72.48;;
75037;Laerm;64247;51.540;5.854;2023-06-10T08:30:37;52.48;46.53;63.80;;
75037;Laerm;64247;51.540;5.854;2023-06-10T08:32:38;52.75;46.86;71.39;;
75037;Laerm;64247;51.540;5.854;2023-06-10T08:34:39;52.96;46.71;72.13;;
75037;Laerm;64247;51.540;5.854;2023-06-10T08:36:40;58.07;47.09;70.37;;
75037;Laerm;64247;51.540;5.854;2023-06-10T08:38:41;50.48;46.05;63.74;;
75037;Laerm;64247;51.540;5.854;2023-06-10T08:40:42;53.80;46.47;77.22;;
75037;Laerm;64247;51.540;5.854;2023-06-10T08:42:49;53.50;46.28;66.23;;
75037;Laerm;64247;51.540;5.854;2023-06-10T08:44:56;54.56;46.48;64.68;;
75037;Laerm;64247;51.540;5.854;2023-06-10T08:46:59;50.65;46.26;61.55;;
75037;Laerm;64247;51.540;5.854;2023-06-10T08:49:06;50.95;46.22;61.01;;
75037;Laerm;64247;51.540;5.854;2023-06-10T08:51:11;52.85;46.16;66.02;;
75037;Laerm;64247;51.540;5.854;2023-06-10T08:53:17;55.45;46.55;67.60;;
75037;Laerm;64247;51.540;5.854;2023-06-10T08:55:32;53.09;46.52;64.03;;
75037;Laerm;64247;51.540;5.854;2023-06-10T08:57:33;53.80;45.79;65.10;;
75037;Laerm;64247;51.540;5.854;2023-06-10T08:59:34;49.16;45.85;59.88;;
75037;Laerm;64247;51.540;5.854;2023-06-10T09:01:36;51.45;46.26;61.79;;
75037;Laerm;64247;51.540;5.854;2023-06-10T09:03:38;51.27;45.42;67.07;;
75037;Laerm;64247;51.540;5.854;2023-06-10T09:05:40;54.36;45.56;68.42;;
75037;Laerm;64247;51.540;5.854;2023-06-10T09:07:42;52.98;44.76;69.20;;
75037;Laerm;64247;51.540;5.854;2023-06-10T09:09:45;54.19;46.39;71.95;;
75037;Laerm;64247;51.540;5.854;2023-06-10T09:11:46;53.77;46.94;66.91;;
75037;Laerm;64247;51.540;5.854;2023-06-10T09:13:48;56.82;46.45;73.96;;
75037;Laerm;64247;51.540;5.854;2023-06-10T09:15:49;56.72;46.26;67.56;;
75037;Laerm;64247;51.540;5.854;2023-06-10T09:17:51;63.07;55.45;73.51;;
75037;Laerm;64247;51.540;5.854;2023-06-10T09:19:53;57.60;54.56;65.03;;
75037;Laerm;64247;51.540;5.854;2023-06-10T09:21:55;57.92;54.56;69.30;;
75037;Laerm;64247;51.540;5.854;2023-06-10T09:23:57;58.57;54.63;71.13;;
75037;Laerm;64247;51.540;5.854;2023-06-10T09:25:59;56.53;48.65;67.77;;
75037;Laerm;64247;51.540;5.854;2023-06-10T09:28:00;53.00;47.53;65.37;;
75037;Laerm;64247;51.540;5.854;2023-06-10T09:30:00;55.92;46.92;66.79;;
75037;Laerm;64247;51.540;5.854;2023-06-10T09:32:02;52.16;46.73;61.61;;
75037;Laerm;64247;51.540;5.854;2023-06-10T09:34:14;53.16;46.11;64.21;;
75037;Laerm;64247;51.540;5.854;2023-06-10T09:36:22;51.15;46.50;60.85;;
75037;Laerm;64247;51.540;5.854;2023-06-10T09:38:30;51.09;47.15;61.01;;
75037;Laerm;64247;51.540;5.854;2023-06-10T09:40:32;51.38;46.41;61.75;;
75037;Laerm;64247;51.540;5.854;2023-06-10T09:42:35;55.03;46.78;71.48;;
75037;Laerm;64247;51.540;5.854;2023-06-10T09:44:36;53.91;48.34;70.50;;
75037;Laerm;64247;51.540;5.854;2023-06-10T09:46:36;53.33;47.28;76.56;;
75037;Laerm;64247;51.540;5.854;2023-06-10T09:48:45;49.62;46.47;61.61;;
75037;Laerm;64247;51.540;5.854;2023-06-10T09:50:48;52.13;46.30;63.03;;
75037;Laerm;64247;51.540;5.854;2023-06-10T09:52:50;52.89;45.82;65.32;;
75037;Laerm;64247;51.540;5.854;2023-06-10T09:54:52;52.37;46.03;66.46;;
75037;Laerm;64247;51.540;5.854;2023-06-10T09:56:53;51.90;46.14;63.20;;
75037;Laerm;64247;51.540;5.854;2023-06-10T09:58:54;50.63;45.85;60.44;;
75037;Laerm;64247;51.540;5.854;2023-06-10T10:00:55;50.81;45.56;59.38;;
75037;Laerm;64247;51.540;5.854;2023-06-10T10:02:56;52.50;46.89;62.70;;
75037;Laerm;64247;51.540;5.854;2023-06-10T10:05:03;52.00;45.70;63.54;;
75037;Laerm;64247;51.540;5.854;2023-06-10T10:07:05;57.35;45.94;67.53;;
75037;Laerm;64247;51.540;5.854;2023-06-10T10:09:07;52.93;46.56;65.79;;
75037;Laerm;64247;51.540;5.854;2023-06-10T10:11:10;50.20;45.58;61.67;;
75037;Laerm;64247;51.540;5.854;2023-06-10T10:13:11;49.13;46.00;64.57;;
75037;Laerm;64247;51.540;5.854;2023-06-10T10:15:12;50.31;46.52;59.65;;
75037;Laerm;64247;51.540;5.854;2023-06-10T10:17:15;50.15;46.11;59.62;;
75037;Laerm;64247;51.540;5.854;2023-06-10T10:19:43;50.74;46.21;63.68;;
75037;Laerm;64247;51.540;5.854;2023-06-10T10:21:54;52.12;46.31;70.13;;
75037;Laerm;64247;51.540;5.854;2023-06-10T10:24:07;53.04;45.89;63.57;;
75037;Laerm;64247;51.540;5.854;2023-06-10T10:26:10;52.64;46.01;63.13;;
75037;Laerm;64247;51.540;5.854;2023-06-10T10:28:13;51.94;45.61;61.51;;
75037;Laerm;64247;51.540;5.854;2023-06-10T10:30:20;50.64;46.32;66.84;;
75037;Laerm;64247;51.540;5.854;2023-06-10T10:35:22;54.01;45.90;67.42;;
75037;Laerm;64247;51.540;5.854;2023-06-10T10:37:24;53.71;46.07;72.48;;
75037;Laerm;64247;51.540;5.854;2023-06-10T10:39:27;52.89;45.65;68.20;;
75037;Laerm;64247;51.540;5.854;2023-06-10T10:41:31;51.59;46.44;67.93;;
75037;Laerm;64247;51.540;5.854;2023-06-10T10:43:34;50.72;46.40;64.96;;
75037;Laerm;64247;51.540;5.854;2023-06-10T10:45:35;51.42;46.28;61.36;;
75037;Laerm;64247;51.540;5.854;2023-06-10T10:47:37;51.00;47.15;68.89;;
75037;Laerm;64247;51.540;5.854;2023-06-10T10:49:43;54.50;46.49;68.82;;
75037;Laerm;64247;51.540;5.854;2023-06-10T10:52:04;53.14;45.83;64.22;;
75037;Laerm;64247;51.540;5.854;2023-06-10T10:54:14;52.64;46.27;66.53;;
75037;Laerm;64247;51.540;5.854;2023-06-10T10:56:16;51.06;45.50;60.34;;
75037;Laerm;64247;51.540;5.854;2023-06-10T10:58:25;53.92;45.07;70.39;;
75037;Laerm;64247;51.540;5.854;2023-06-10T11:00:45;52.89;45.81;69.41;;
75037;Laerm;64247;51.540;5.854;2023-06-10T11:02:46;53.99;45.44;68.75;;
75037;Laerm;64247;51.540;5.854;2023-06-10T11:04:48;50.37;45.37;60.78;;
75037;Laerm;64247;51.540;5.854;2023-06-10T11:06:53;50.95;45.55;62.78;;
75037;Laerm;64247;51.540;5.854;2023-06-10T11:08:55;55.07;45.73;68.80;;
75037;Laerm;64247;51.540;5.854;2023-06-10T11:10:55;51.84;46.31;60.17;;
75037;Laerm;64247;51.540;5.854;2023-06-10T11:12:57;51.99;46.44;65.91;;
75037;Laerm;64247;51.540;5.854;2023-06-10T11:14:59;52.51;46.70;65.88;;
75037;Laerm;64247;51.540;5.854;2023-06-10T11:17:00;52.90;46.63;67.02;;
75037;Laerm;64247;51.540;5.854;2023-06-10T11:19:00;51.76;46.03;63.28;;
75037;Laerm;64247;51.540;5.854;2023-06-10T11:21:03;50.33;46.38;59.20;;
75037;Laerm;64247;51.540;5.854;2023-06-10T11:23:05;52.26;46.42;63.69;;
75037;Laerm;64247;51.540;5.854;2023-06-10T11:25:14;49.09;45.61;57.58;;
75037;Laerm;64247;51.540;5.854;2023-06-10T11:27:38;48.76;45.87;58.29;;
75037;Laerm;64247;51.540;5.854;2023-06-10T11:30:39;52.34;47.10;63.72;;
75037;Laerm;64247;51.540;5.854;2023-06-10T11:32:17;50.92;46.08;61.75;;
75037;Laerm;64247;51.540;5.854;2023-06-10T11:34:23;51.96;46.39;64.42;;
75037;Laerm;64247;51.540;5.854;2023-06-10T11:36:27;52.49;47.04;65.95;;